Time;durP1;ratioP1;P1;durP2;ratioP2;P2;SDS_P1;SDS_P2;PMS_P1;PMS_P2;Temp;Humidity;BMP_temperature;BMP_pressure;BME280_temperature;BME280_humidity;BME280_pressure;Samples;Min_cycle;Max_cycle;Signal;HPM_P1;HPM_P2
2023/03/23 00:00:51;;;;;;;23.55;16.80;;;;;;;10.19;100.00;98118.69;5052726;28;20193;-60
2023/03/23 00:03:17;;;;;;;21.83;15.60;;;;;;;10.46;100.00;98142.56;5053182;28;20173;-60
2023/03/23 00:05:49;;;;;;;19.88;15.88;;;;;;;10.38;100.00;98118.19;5050602;28;20774;-60
2023/03/23 00:08:16;;;;;;;23.27;16.10;;;;;;;10.64;100.00;98140.41;5050752;28;20231;-60
2023/03/23 00:10:41;;;;;;;25.23;17.73;;;;;;;10.80;100.00;98156.47;5050718;28;20839;-60
2023/03/23 00:13:07;;;;;;;21.60;15.13;;;;;;;10.57;100.00;98108.19;5050511;28;20285;-60
2023/03/23 00:15:35;;;;;;;19.60;14.25;;;;;;;10.84;100.00;98155.28;5050511;28;20189;-60
2023/03/23 00:18:02;;;;;;;20.52;14.40;;;;;;;10.70;100.00;98132.22;5050542;28;20652;-60
2023/03/23 00:20:29;;;;;;;22.02;13.73;;;;;;;11.00;100.00;98203.25;5050397;28;20189;-60
2023/03/23 00:22:59;;;;;;;18.88;13.02;;;;;;;10.55;100.00;98110.03;5050462;28;20688;-60
2023/03/23 00:25:25;;;;;;;17.85;12.70;;;;;;;10.99;100.00;98172.28;5050438;28;20189;-60
2023/03/23 00:27:50;;;;;;;18.25;13.60;;;;;;;10.74;100.00;98133.63;5050328;28;20614;-60
2023/03/23 00:30:16;;;;;;;16.17;12.93;;;;;;;10.79;100.00;98149.66;5050551;28;20377;-60
2023/03/23 00:32:41;;;;;;;19.55;13.25;;;;;;;10.74;100.00;98168.09;5050184;28;20255;-60
2023/03/23 00:35:08;;;;;;;18.20;13.45;;;;;;;10.83;100.00;98176.94;5050237;28;20200;-60
2023/03/23 00:37:35;;;;;;;16.95;13.27;;;;;;;10.91;100.00;98190.97;5051942;28;20299;-60
2023/03/23 00:40:01;;;;;;;22.70;14.50;;;;;;;10.83;100.00;98169.19;5052561;28;20555;-60
2023/03/23 00:42:36;;;;;;;18.02;12.68;;;;;;;10.47;100.00;98096.84;5052518;28;20170;-60
2023/03/23 00:45:02;;;;;;;16.63;12.75;;;;;;;10.50;100.00;98106.97;5052541;28;20541;-60
2023/03/23 00:47:27;;;;;;;19.00;13.65;;;;;;;10.38;100.00;98103.50;5052433;28;20174;-60
2023/03/23 00:49:55;;;;;;;16.92;12.70;;;;;;;10.82;100.00;98180.47;5069867;28;20671;-60
2023/03/23 00:52:21;;;;;;;19.15;13.48;;;;;;;10.63;100.00;98180.16;5069881;28;20657;-60
2023/03/23 00:54:46;;;;;;;22.38;14.32;;;;;;;10.70;100.00;98196.88;5068987;28;20315;-60
2023/03/23 00:57:12;;;;;;;23.10;14.85;;;;;;;10.30;100.00;98142.03;5069955;28;20234;-60
2023/03/23 00:59:37;;;;;;;18.85;13.65;;;;;;;10.56;100.00;98168.63;5069868;28;20185;-60
2023/03/23 01:02:02;;;;;;;24.45;14.48;;;;;;;10.40;100.00;98124.91;5069850;28;20280;-60
2023/03/23 01:04:28;;;;;;;21.17;14.85;;;;;;;10.53;100.00;98117.09;5069792;28;20569;-60
2023/03/23 01:06:54;;;;;;;22.63;14.98;;;;;;;10.38;100.00;98087.16;5069780;28;20181;-60
2023/03/23 01:09:21;;;;;;;20.13;14.63;;;;;;;10.63;100.00;98134.41;5069766;28;20208;-60
2023/03/23 01:11:49;;;;;;;22.85;16.05;;;;;;;10.69;100.00;98148.66;5069767;28;20191;-61
2023/03/23 01:14:16;;;;;;;22.17;15.07;;;;;;;10.83;100.00;98180.38;5069618;28;20370;-60
2023/03/23 01:16:42;;;;;;;27.58;18.75;;;;;;;10.57;100.00;98113.34;5069682;28;20181;-60
2023/03/23 01:19:07;;;;;;;24.98;16.35;;;;;;;10.69;100.00;98149.47;5069669;28;20657;-60
2023/03/23 01:21:33;;;;;;;23.52;16.25;;;;;;;10.45;100.00;98153.03;5069636;28;20284;-60
2023/03/23 01:23:58;;;;;;;24.90;15.57;;;;;;;9.93;100.00;98088.66;5069674;28;20181;-60
2023/03/23 01:26:26;;;;;;;23.05;15.82;;;;;;;10.04;100.00;98129.31;5067221;28;20276;-60
2023/03/23 01:28:52;;;;;;;23.13;15.15;;;;;;;10.02;100.00;98107.88;5051979;28;20181;-60
2023/03/23 01:31:20;;;;;;;23.02;15.80;;;;;;;10.49;100.00;98151.88;5051925;28;20185;-60
2023/03/23 01:33:47;;;;;;;28.08;16.88;;;;;;;10.35;100.00;98136.53;5051850;28;20198;-60
2023/03/23 01:36:15;;;;;;;25.77;17.10;;;;;;;10.36;100.00;98130.41;5051922;28;20644;-60
2023/03/23 01:38:45;;;;;;;25.38;15.98;;;;;;;10.30;100.00;98112.75;5051802;28;20184;-60
2023/03/23 01:41:10;;;;;;;29.55;19.02;;;;;;;10.50;100.00;98135.44;5051844;28;20530;-60
2023/03/23 01:43:53;;;;;;;28.05;18.33;;;;;;;10.47;100.00;98122.72;5051499;28;20367;-60
2023/03/23 01:46:18;;;;;;;27.35;17.67;;;;;;;10.40;100.00;98116.34;5051800;28;20162;-60
2023/03/23 01:48:45;;;;;;;31.95;19.45;;;;;;;10.42;100.00;98106.69;5051716;28;20201;-60
2023/03/23 01:51:16;;;;;;;24.23;17.10;;;;;;;10.98;100.00;98196.53;5051826;28;20178;-60
2023/03/23 01:53:48;;;;;;;23.75;15.93;;;;;;;10.62;100.00;98156.03;5051672;28;20196;-60
2023/03/23 01:56:20;;;;;;;20.85;15.43;;;;;;;10.47;100.00;98127.88;5051411;28;20201;-60
2023/03/23 01:58:46;;;;;;;22.95;16.17;;;;;;;10.60;100.00;98149.31;5051717;28;20164;-60
2023/03/23 02:01:14;;;;;;;27.75;19.30;;;;;;;10.39;100.00;98105.16;5051622;28;20175;-60
2023/03/23 02:03:44;;;;;;;32.25;20.90;;;;;;;10.78;100.00;98163.50;5051592;28;20170;-60
2023/03/23 02:06:10;;;;;;;40.22;23.35;;;;;;;10.89;100.00;98179.09;5054446;28;20227;-60
2023/03/23 02:08:38;;;;;;;36.78;23.77;;;;;;;10.63;100.00;98143.94;5055343;28;20178;-60
2023/03/23 02:11:22;;;;;;;37.63;24.00;;;;;;;10.80;100.00;98177.19;5032853;28;20736;-60
2023/03/23 02:13:49;;;;;;;36.90;24.60;;;;;;;10.34;100.00;98109.03;5033053;28;20198;-60
2023/03/23 02:16:27;;;;;;;40.90;26.00;;;;;;;10.69;100.00;98184.91;5033059;28;20677;-60
2023/03/23 02:19:16;;;;;;;39.97;25.65;;;;;;;10.21;100.00;98106.47;5033050;28;20246;-60
2023/03/23 02:21:59;;;;;;;40.67;26.35;;;;;;;10.68;100.00;98193.59;5032965;28;20199;-60
2023/03/23 02:24:34;;;;;;;46.17;26.98;;;;;;;10.71;100.00;98190.78;5032900;28;20170;-60
2023/03/23 02:27:08;;;;;;;39.72;26.17;;;;;;;10.69;100.00;98188.28;5032887;28;20182;-60
2023/03/23 02:29:59;;;;;;;40.75;25.98;;;;;;;10.69;100.00;98190.88;5032847;28;20178;-60
2023/03/23 02:32:46;;;;;;;38.75;24.77;;;;;;;10.58;100.00;98192.59;5032812;28;20217;-60
2023/03/23 02:35:22;;;;;;;40.08;25.52;;;;;;;10.12;100.00;98106.31;5032852;28;20166;-60
2023/03/23 02:38:11;;;;;;;34.88;24.15;;;;;;;10.65;100.00;98199.81;5032682;28;20647;-60
2023/03/23 02:40:41;;;;;;;30.63;22.00;;;;;;;10.33;100.00;98156.50;5009950;28;20187;-60
2023/03/23 02:43:10;;;;;;;35.92;24.50;;;;;;;9.91;100.00;98118.97;5050010;28;20763;-60
2023/03/23 02:45:38;;;;;;;33.85;22.20;;;;;;;10.23;100.00;98176.19;5052429;28;20182;-60
2023/03/23 02:48:06;;;;;;;35.03;23.50;;;;;;;10.13;100.00;98206.19;5052402;28;20277;-60
2023/03/23 02:50:33;;;;;;;35.33;22.48;;;;;;;9.55;100.00;98110.38;5052377;28;20192;-59
2023/03/23 02:53:00;;;;;;;36.00;24.65;;;;;;;9.37;100.00;98109.06;5052229;28;20209;-60
2023/03/23 02:55:28;;;;;;;36.67;24.38;;;;;;;9.86;100.00;98206.31;5052056;28;20211;-59
2023/03/23 02:57:54;;;;;;;36.85;23.75;;;;;;;9.56;100.00;98132.69;5052116;28;20232;-59
2023/03/23 03:00:21;;;;;;;33.45;23.20;;;;;;;9.92;100.00;98192.16;5052095;28;20181;-59
2023/03/23 03:02:52;;;;;;;31.50;21.73;;;;;;;9.95;100.00;98177.28;5052110;28;20181;-60
2023/03/23 03:06:10;;;;;;;34.10;20.98;;;;;;;10.17;100.00;98202.47;5052037;28;20224;-60
2023/03/23 03:08:42;;;;;;;32.97;20.40;;;;;;;10.14;100.00;98200.09;5012285;28;20194;-60
2023/03/23 03:11:22;;;;;;;29.02;20.00;;;;;;;9.71;100.00;98121.31;5015714;28;20294;-60
2023/03/23 03:13:55;;;;;;;31.17;21.30;;;;;;;10.27;100.00;98198.31;5031982;28;20652;-60
2023/03/23 03:16:38;;;;;;;32.67;19.52;;;;;;;10.34;100.00;98213.25;4991844;28;20647;-60
2023/03/23 03:19:35;;;;;;;33.03;20.80;;;;;;;10.43;100.00;98228.16;4992547;28;20592;-60
2023/03/23 03:22:01;;;;;;;27.73;19.77;;;;;;;10.13;100.00;98182.94;4992511;28;20202;-60
2023/03/23 03:24:29;;;;;;;30.52;19.40;;;;;;;10.02;100.00;98151.81;4992433;28;20227;-60
2023/03/23 03:26:59;;;;;;;30.45;19.42;;;;;;;9.90;100.00;98137.16;4992326;28;20234;-60
2023/03/23 03:29:29;;;;;;;31.45;20.70;;;;;;;10.05;100.00;98167.16;4992302;28;20219;-60
2023/03/23 03:31:58;;;;;;;31.45;20.85;;;;;;;10.29;100.00;98214.53;4992293;28;20199;-60
2023/03/23 03:34:24;;;;;;;32.95;21.38;;;;;;;10.12;100.00;98183.88;4992140;28;20210;-60
2023/03/23 03:36:53;;;;;;;30.17;19.40;;;;;;;10.01;100.00;98160.50;4992128;28;20196;-60
2023/03/23 03:39:21;;;;;;;33.72;20.60;;;;;;;10.34;100.00;98217.63;4992410;28;20176;-60
2023/03/23 03:41:47;;;;;;;29.08;20.27;;;;;;;10.21;100.00;98188.41;4992107;28;20195;-60
2023/03/23 03:44:12;;;;;;;28.63;20.45;;;;;;;10.35;100.00;98232.22;5017757;28;20201;-60
2023/03/23 03:46:38;;;;;;;31.50;20.77;;;;;;;9.89;100.00;98167.38;5036042;28;20185;-60
2023/03/23 03:49:07;;;;;;;32.67;20.73;;;;;;;10.29;100.00;98217.13;5053584;28;20232;-60
2023/03/23 03:51:35;;;;;;;32.85;20.70;;;;;;;10.07;100.00;98179.03;5053549;28;20192;-60
2023/03/23 03:54:01;;;;;;;31.25;21.15;;;;;;;10.30;100.00;98196.34;5053372;28;20256;-60
2023/03/23 03:56:26;;;;;;;36.33;21.23;;;;;;;10.23;100.00;98208.06;5053436;28;20237;-60
2023/03/23 03:58:52;;;;;;;32.70;21.15;;;;;;;10.10;100.00;98194.31;5053412;28;20379;-60
2023/03/23 04:01:23;;;;;;;37.08;23.92;;;;;;;9.91;100.00;98157.75;5053313;28;20185;-60
2023/03/23 04:03:50;;;;;;;42.55;25.55;;;;;;;10.21;100.00;98206.50;5053236;28;20257;-60
2023/03/23 04:06:16;;;;;;;43.05;25.13;;;;;;;10.54;100.00;98255.84;5053273;28;20188;-60
2023/03/23 04:08:42;;;;;;;49.65;28.48;;;;;;;10.05;100.00;98177.47;5050636;28;20749;-60
2023/03/23 04:11:10;;;;;;;56.53;30.58;;;;;;;10.33;100.00;98213.41;5050697;28;20193;-60
2023/03/23 04:13:35;;;;;;;56.28;29.85;;;;;;;9.97;100.00;98170.22;5050613;28;20214;-59
2023/03/23 04:16:03;;;;;;;59.58;31.75;;;;;;;10.10;100.00;98196.09;5050694;28;20193;-60
2023/03/23 04:18:29;;;;;;;60.15;32.58;;;;;;;10.03;100.00;98193.09;5050597;28;20675;-60
2023/03/23 04:20:58;;;;;;;58.40;31.75;;;;;;;10.06;100.00;98197.22;5050603;28;20196;-60
2023/03/23 04:23:24;;;;;;;61.67;32.90;;;;;;;10.16;100.00;98242.19;5050581;28;20659;-60
2023/03/23 04:25:51;;;;;;;58.85;31.95;;;;;;;9.70;100.00;98166.16;5050496;28;20204;-60
2023/03/23 04:28:18;;;;;;;60.65;32.53;;;;;;;9.87;100.00;98192.47;5049570;28;20275;-60
2023/03/23 04:30:44;;;;;;;66.57;34.60;;;;;;;10.23;100.00;98254.59;5050414;28;20193;-60
2023/03/23 04:33:14;;;;;;;62.78;33.08;;;;;;;9.90;100.00;98212.09;5050221;28;20232;-60
2023/03/23 04:35:41;;;;;;;62.08;32.10;;;;;;;10.24;100.00;98258.00;5050297;28;20686;-60
2023/03/23 04:38:08;;;;;;;57.03;30.85;;;;;;;10.21;100.00;98240.13;5050227;28;20243;-60
2023/03/23 04:40:38;;;;;;;53.53;30.73;;;;;;;9.74;100.00;98175.31;5052033;28;20276;-60
2023/03/23 04:43:05;;;;;;;54.38;31.02;;;;;;;10.02;100.00;98208.66;5052673;28;20154;-60
2023/03/23 04:45:31;;;;;;;54.22;31.75;;;;;;;10.05;100.00;98208.50;5052599;28;20235;-60
2023/03/23 04:47:57;;;;;;;51.00;29.73;;;;;;;9.71;100.00;98162.63;5052212;28;20181;-60
2023/03/23 04:50:30;;;;;;;54.58;30.17;;;;;;;10.33;100.00;98259.94;5052518;28;20181;-60
2023/03/23 04:52:58;;;;;;;49.25;29.20;;;;;;;9.83;100.00;98161.78;5052425;28;20224;-60
2023/03/23 04:55:25;;;;;;;56.08;32.20;;;;;;;10.06;100.00;98194.63;5049799;28;20201;-60
2023/03/23 04:57:51;;;;;;;56.50;30.60;;;;;;;10.48;100.00;98264.03;5049999;28;20185;-60
2023/03/23 05:00:17;;;;;;;56.08;32.47;;;;;;;9.99;100.00;98167.53;5049958;28;20245;-60
2023/03/23 05:02:46;;;;;;;52.33;32.10;;;;;;;10.40;100.00;98232.72;5049953;28;20177;-61
2023/03/23 05:05:13;;;;;;;58.03;30.50;;;;;;;10.30;100.00;98217.03;5049901;28;20186;-61
2023/03/23 05:07:39;;;;;;;54.55;30.60;;;;;;;10.27;100.00;98213.84;5050166;28;20625;-61
2023/03/23 05:10:07;;;;;;;52.15;30.95;;;;;;;10.41;100.00;98253.31;5049847;28;20324;-60
2023/03/23 05:12:33;;;;;;;57.53;31.80;;;;;;;10.00;100.00;98213.13;5049774;28;20182;-60
2023/03/23 05:14:58;;;;;;;59.03;32.47;;;;;;;10.19;100.00;98244.53;5049648;28;20600;-60
2023/03/23 05:17:24;;;;;;;56.65;31.63;;;;;;;10.15;100.00;98243.94;5049757;28;20567;-61
2023/03/23 05:19:51;;;;;;;53.42;30.60;;;;;;;10.24;100.00;98251.06;5049685;28;20640;-60
2023/03/23 05:22:17;;;;;;;46.00;27.67;;;;;;;10.05;100.00;98213.66;5049742;28;20185;-60
2023/03/23 05:24:43;;;;;;;46.78;28.58;;;;;;;9.95;100.00;98203.13;5049715;28;20587;-60
2023/03/23 05:27:09;;;;;;;51.97;29.95;;;;;;;10.06;100.00;98230.81;5051327;28;20186;-60
2023/03/23 05:29:36;;;;;;;58.22;29.95;;;;;;;9.98;100.00;98207.25;5052022;28;20170;-60
2023/03/23 05:32:06;;;;;;;54.33;29.33;;;;;;;9.77;100.00;98203.53;5051967;28;20173;-60
2023/03/23 05:34:32;;;;;;;49.35;28.25;;;;;;;10.25;100.00;98267.38;5051901;28;20198;-60
2023/03/23 05:36:58;;;;;;;49.15;29.20;;;;;;;9.87;100.00;98194.25;5051980;28;20172;-60
2023/03/23 05:39:24;;;;;;;53.70;29.98;;;;;;;10.39;100.00;98272.44;5052005;28;20181;-60
2023/03/23 05:41:50;;;;;;;62.40;31.85;;;;;;;9.99;100.00;98183.06;5055940;28;20174;-60
2023/03/23 05:44:15;;;;;;;56.92;30.65;;;;;;;10.29;100.00;98232.63;5056000;28;20594;-60
2023/03/23 05:46:41;;;;;;;54.15;30.80;;;;;;;10.35;100.00;98222.72;5055510;28;20177;-60
2023/03/23 05:49:07;;;;;;;52.75;30.52;;;;;;;10.20;100.00;98197.91;5055772;28;20190;-60
2023/03/23 05:51:32;;;;;;;54.58;29.45;;;;;;;10.46;100.00;98242.63;5055766;28;20549;-60
2023/03/23 05:53:58;;;;;;;54.55;31.70;;;;;;;10.78;100.00;98287.72;5055736;28;20201;-60
2023/03/23 05:56:24;;;;;;;53.80;32.42;;;;;;;10.78;100.00;98298.06;5055629;28;20189;-60
2023/03/23 05:58:49;;;;;;;53.67;30.83;;;;;;;10.80;100.00;98291.06;5055670;28;20204;-60
2023/03/23 06:01:15;;;;;;;54.83;30.38;;;;;;;10.48;100.00;98243.34;5055603;28;20632;-60
2023/03/23 06:03:41;;;;;;;57.25;32.28;;;;;;;10.90;100.00;98323.09;5055549;28;20182;-60
2023/03/23 06:06:10;;;;;;;61.50;33.65;;;;;;;10.53;100.00;98267.97;5055225;28;20201;-60
2023/03/23 06:08:36;;;;;;;58.97;33.15;;;;;;;10.32;100.00;98233.25;5055358;28;20188;-60
2023/03/23 06:11:02;;;;;;;58.45;31.88;;;;;;;10.74;100.00;98322.53;5055112;28;20177;-60
2023/03/23 06:13:28;;;;;;;58.70;32.85;;;;;;;10.49;100.00;98286.38;5055188;28;20262;-60
2023/03/23 06:15:59;;;;;;;65.53;33.38;;;;;;;10.37;100.00;98254.44;5055165;28;20181;-60
2023/03/23 06:18:26;;;;;;;65.88;31.60;;;;;;;10.27;100.00;98244.88;5055173;28;20174;-60
2023/03/23 06:20:52;;;;;;;58.60;31.33;;;;;;;10.56;100.00;98327.22;5072527;28;20250;-60
2023/03/23 06:23:18;;;;;;;57.75;32.28;;;;;;;10.55;100.00;98311.81;5072379;28;20189;-60
2023/03/23 06:25:43;;;;;;;61.05;31.88;;;;;;;10.37;100.00;98298.41;5072796;28;20177;-60
2023/03/23 06:28:10;;;;;;;64.47;34.67;;;;;;;10.49;100.00;98314.81;5072723;28;20188;-60
2023/03/23 06:30:36;;;;;;;65.65;34.92;;;;;;;10.19;100.00;98263.50;5072647;28;20566;-60
2023/03/23 06:33:05;;;;;;;76.57;38.22;;;;;;;10.14;100.00;98239.72;5072527;28;20558;-60
2023/03/23 06:35:33;;;;;;;68.15;35.92;;;;;;;10.27;100.00;98242.28;5072494;28;20217;-60
2023/03/23 06:38:01;;;;;;;65.30;35.13;;;;;;;10.83;100.00;98320.13;5072460;28;20188;-60
2023/03/23 06:40:28;;;;;;;68.05;33.05;;;;;;;10.90;100.00;98323.09;5072413;28;20305;-60
2023/03/23 06:42:54;;;;;;;62.83;33.13;;;;;;;10.54;100.00;98248.91;5072355;28;20288;-60
2023/03/23 06:45:19;;;;;;;63.95;33.75;;;;;;;10.73;100.00;98295.03;5072419;28;20181;-60
2023/03/23 06:47:48;;;;;;;66.18;33.60;;;;;;;10.89;100.00;98326.63;5072360;28;20580;-60
2023/03/23 06:50:15;;;;;;;64.95;31.95;;;;;;;10.87;100.00;98318.97;5051890;28;20657;-60
2023/03/23 06:52:41;;;;;;;52.65;29.35;;;;;;;10.98;100.00;98337.13;5033853;28;20645;-60
2023/03/23 06:55:06;;;;;;;64.97;32.63;;;;;;;10.80;100.00;98335.84;5031882;28;20233;-60
2023/03/23 06:57:32;;;;;;;65.93;31.48;;;;;;;10.31;100.00;98292.81;5032116;28;20590;-60
2023/03/23 06:59:57;;;;;;;60.45;32.17;;;;;;;10.01;100.00;98254.38;5031952;28;20183;-61
2023/03/23 07:02:23;;;;;;;57.00;31.70;;;;;;;10.17;100.00;98261.94;5031868;28;20179;-60
2023/03/23 07:04:48;;;;;;;59.15;32.38;;;;;;;10.29;100.00;98253.31;5031838;28;20191;-61
2023/03/23 07:07:18;;;;;;;63.13;32.30;;;;;;;10.47;100.00;98263.22;5031937;28;20178;-60
2023/03/23 07:09:44;;;;;;;64.88;33.00;;;;;;;10.96;100.00;98338.19;5048148;28;20189;-60
2023/03/23 07:12:09;;;;;;;57.80;31.20;;;;;;;10.80;100.00;98296.22;5051958;28;20578;-60
2023/03/23 07:14:35;;;;;;;54.97;31.27;;;;;;;10.83;100.00;98296.00;5051862;28;20274;-60
2023/03/23 07:17:03;;;;;;;56.45;29.58;;;;;;;10.89;100.00;98316.25;5051848;28;20232;-60
2023/03/23 07:19:28;;;;;;;57.50;31.10;;;;;;;10.64;100.00;98267.19;5051769;28;20268;-60
2023/03/23 07:21:53;;;;;;;53.78;31.98;;;;;;;10.83;100.00;98304.59;5053376;28;20281;-60
2023/03/23 07:24:19;;;;;;;57.05;31.55;;;;;;;10.61;100.00;98281.16;5054147;28;20264;-60
2023/03/23 07:26:45;;;;;;;57.88;31.42;;;;;;;10.97;100.00;98330.31;5053799;28;20178;-60
2023/03/23 07:29:10;;;;;;;57.55;30.73;;;;;;;11.18;100.00;98346.06;5031448;28;20291;-60
2023/03/23 07:31:36;;;;;;;55.63;30.50;;;;;;;11.10;100.00;98306.97;5031652;28;20273;-60
2023/03/23 07:34:02;;;;;;;55.90;29.23;;;;;;;11.55;100.00;98350.25;5031620;28;20604;-60
2023/03/23 07:36:28;;;;;;;55.30;29.33;;;;;;;11.57;100.00;98338.00;5031550;28;20182;-60
2023/03/23 07:38:54;;;;;;;54.00;32.28;;;;;;;11.51;100.00;98320.31;5031442;28;20190;-60
2023/03/23 07:41:20;;;;;;;61.17;30.70;;;;;;;11.78;100.00;98370.16;5031468;28;20219;-60
2023/03/23 07:43:45;;;;;;;49.70;28.75;;;;;;;11.44;100.00;98332.09;5031419;28;20221;-60
2023/03/23 07:46:12;;;;;;;54.50;29.55;;;;;;;11.52;100.00;98340.09;5031244;28;20186;-60
2023/03/23 07:48:37;;;;;;;54.92;27.70;;;;;;;11.80;100.00;98357.91;5030173;28;20197;-60
2023/03/23 07:51:03;;;;;;;53.17;29.60;;;;;;;11.94;100.00;98371.50;5029080;28;20186;-60
2023/03/23 07:53:29;;;;;;;57.58;30.33;;;;;;;11.63;100.00;98340.19;5030975;28;20202;-61
2023/03/23 07:55:55;;;;;;;54.80;31.15;;;;;;;11.41;100.00;98296.03;5030988;28;20646;-60
2023/03/23 07:58:20;;;;;;;62.97;32.30;;;;;;;11.32;100.00;98299.31;5031136;28;20206;-60
2023/03/23 08:00:48;;;;;;;54.35;30.15;;;;;;;11.11;100.00;98285.31;5047781;28;20270;-60
2023/03/23 08:03:15;;;;;;;53.58;28.98;;;;;;;11.60;100.00;98337.78;5053127;28;20182;-60
2023/03/23 08:05:41;;;;;;;58.72;29.95;;;;;;;11.91;100.00;98366.50;5053342;28;20272;-60
2023/03/23 08:08:09;;;;;;;53.42;30.40;;;;;;;11.88;100.00;98371.09;5053281;28;20169;-60
2023/03/23 08:10:35;;;;;;;53.35;28.23;;;;;;;11.36;100.00;98290.34;5053182;28;20563;-60
2023/03/23 08:13:00;;;;;;;57.05;29.17;;;;;;;11.82;100.00;98341.28;5053087;28;20169;-60
2023/03/23 08:15:27;;;;;;;56.17;30.38;;;;;;;12.23;100.00;98380.50;5052190;28;20260;-60
2023/03/23 08:17:52;;;;;;;51.47;28.38;;;;;;;11.88;100.00;98340.00;5053042;28;20178;-60
2023/03/23 08:20:18;;;;;;;48.55;27.50;;;;;;;11.96;100.00;98342.88;5053067;28;20181;-60
2023/03/23 08:22:52;;;;;;;45.78;27.77;;;;;;;11.80;100.00;98331.97;5052888;28;20655;-60
2023/03/23 08:25:19;;;;;;;50.85;27.90;;;;;;;12.29;100.00;98381.78;5053050;28;20170;-60
2023/03/23 08:27:44;;;;;;;50.58;29.33;;;;;;;12.24;100.00;98353.63;5052859;28;20174;-60
2023/03/23 08:30:13;;;;;;;55.40;30.67;;;;;;;12.19;100.00;98303.03;5053045;28;20655;-60
2023/03/23 08:32:39;;;;;;;50.45;29.27;;;;;;;12.90;100.00;98382.16;5053068;28;20181;-60
2023/03/23 08:35:06;;;;;;;51.92;28.63;;;;;;;12.71;100.00;98318.81;5052636;28;20205;-60
2023/03/23 08:37:32;;;;;;;53.08;29.15;;;;;;;12.81;100.00;98306.75;5052711;28;20180;-60
2023/03/23 08:39:58;;;;;;;52.47;29.58;;;;;;;13.28;100.00;98340.19;5052678;28;20260;-60
2023/03/23 08:42:26;;;;;;;53.72;30.02;;;;;;;13.50;100.00;98353.94;5052624;28;20174;-60
2023/03/23 08:44:52;;;;;;;52.38;31.05;;;;;;;13.71;100.00;98383.38;5052277;28;20655;-60
2023/03/23 08:47:18;;;;;;;49.38;28.30;;;;;;;13.39;100.00;98303.75;5052547;28;20178;-60
2023/03/23 08:49:45;;;;;;;49.38;28.10;;;;;;;13.74;100.00;98358.91;5052534;28;20209;-60
2023/03/23 08:52:11;;;;;;;47.17;27.35;;;;;;;13.72;100.00;98345.19;5052249;28;20721;-60
2023/03/23 08:54:36;;;;;;;50.53;28.30;;;;;;;13.55;100.00;98319.75;5052392;28;20244;-60
2023/03/23 08:57:02;;;;;;;50.97;30.15;;;;;;;13.45;100.00;98324.88;5052613;28;20567;-60
2023/03/23 08:59:28;;;;;;;46.75;28.67;;;;;;;13.16;100.00;98302.19;5052382;28;20517;-60
2023/03/23 09:01:54;;;;;;;42.13;25.90;;;;;;;13.54;100.00;98364.91;5052076;28;20275;-60
2023/03/23 09:04:20;;;;;;;49.85;28.38;;;;;;;13.55;100.00;98363.94;5052311;28;20316;-60
2023/03/23 09:06:46;;;;;;;41.17;24.45;;;;;;;13.72;100.00;98376.41;5052262;28;20216;-60
2023/03/23 09:09:12;;;;;;;37.50;23.55;;;;;;;13.71;100.00;98361.75;5051998;28;20603;-60
2023/03/23 09:11:38;;;;;;;38.63;22.63;;;;;;;13.77;100.00;98374.25;5052219;28;20247;-60
2023/03/23 09:14:06;;;;;;;40.17;25.58;;;;;;;13.74;100.00;98335.50;5051798;28;20197;-60
2023/03/23 09:16:32;;;;;;;32.70;21.95;;;;;;;14.19;100.00;98397.59;5051899;28;20173;-60
2023/03/23 09:18:58;;;;;;;37.17;20.80;;;;;;;13.71;100.00;98309.75;5052115;28;20206;-60
2023/03/23 09:21:25;;;;;;;32.67;21.63;;;;;;;14.08;100.00;98355.16;5052122;28;20264;-60
2023/03/23 09:23:51;;;;;;;35.90;20.10;;;;;;;13.91;100.00;98312.34;5052079;28;20181;-60
2023/03/23 09:26:16;;;;;;;35.60;21.35;;;;;;;14.17;100.00;98336.19;5052135;28;20170;-60
2023/03/23 09:28:44;;;;;;;35.45;22.17;;;;;;;14.48;100.00;98389.94;5052064;28;20542;-60
2023/03/23 09:31:10;;;;;;;39.03;23.92;;;;;;;14.52;100.00;98392.13;5052028;28;20182;-60
2023/03/23 09:33:36;;;;;;;36.33;23.00;;;;;;;14.46;100.00;98379.66;5051936;28;20224;-60
2023/03/23 09:36:04;;;;;;;35.13;21.73;;;;;;;14.54;100.00;98392.84;5051943;28;20620;-60
2023/03/23 09:38:34;;;;;;;31.75;20.52;;;;;;;14.08;100.00;98335.19;5051967;28;20181;-60
2023/03/23 09:41:17;;;;;;;30.50;19.92;;;;;;;14.22;100.00;98389.50;5051877;28;20227;-60
2023/03/23 09:44:10;;;;;;;29.60;19.23;;;;;;;14.28;100.00;98383.00;5052274;28;20170;-60
2023/03/23 09:46:54;;;;;;;26.80;17.30;;;;;;;14.22;100.00;98380.88;5049456;28;20193;-60
2023/03/23 09:49:28;;;;;;;26.33;17.02;;;;;;;14.12;100.00;98338.34;5049447;28;20186;-60
2023/03/23 09:52:03;;;;;;;26.52;18.77;;;;;;;14.61;100.00;98385.34;5049473;28;20289;-60
2023/03/23 09:54:42;;;;;;;27.73;17.95;;;;;;;14.79;100.00;98389.81;5049437;28;20284;-60
2023/03/23 09:57:18;;;;;;;32.42;18.65;;;;;;;14.45;100.00;98302.50;5049424;28;20687;-60
2023/03/23 09:59:57;;;;;;;29.70;18.95;;;;;;;14.83;100.00;98354.72;5049440;28;20169;-60
2023/03/23 10:02:32;;;;;;;29.50;20.00;;;;;;;15.01;100.00;98379.19;5049390;28;20177;-60
2023/03/23 10:05:19;;;;;;;30.13;19.27;;;;;;;14.69;100.00;98333.44;5049361;28;20208;-60
2023/03/23 10:07:45;;;;;;;25.08;16.88;;;;;;;14.36;100.00;98302.47;5049356;28;20335;-60
2023/03/23 10:10:13;;;;;;;29.65;19.45;;;;;;;14.66;100.00;98337.13;5049255;28;20719;-60
2023/03/23 10:12:51;;;;;;;28.65;19.73;;;;;;;14.91;100.00;98374.88;5049254;28;20328;-60
2023/03/23 10:15:32;;;;;;;29.45;18.88;;;;;;;15.06;100.00;98352.72;5049269;28;20208;-60
2023/03/23 10:18:09;;;;;;;23.75;18.25;;;;;;;15.34;100.00;98349.38;5049130;28;20731;-60
2023/03/23 10:20:37;;;;;;;34.08;21.00;;;;;;;15.56;100.00;98376.00;5049276;28;20174;-60
2023/03/23 10:23:18;;;;;;;26.23;18.98;;;;;;;15.67;100.00;98375.03;5049858;28;20329;-60
2023/03/23 10:25:51;;;;;;;28.30;18.45;;;;;;;15.79;100.00;98376.53;5052187;28;20180;-60
2023/03/23 10:28:34;;;;;;;31.05;20.08;;;;;;;15.72;100.00;98373.69;5055236;28;20209;-60
2023/03/23 10:31:01;;;;;;;27.52;18.88;;;;;;;15.34;100.00;98298.03;5055142;28;20184;-59
2023/03/23 10:33:37;;;;;;;28.00;19.38;;;;;;;15.75;100.00;98367.34;5054902;28;20201;-61
2023/03/23 10:36:10;;;;;;;26.67;19.30;;;;;;;15.33;100.00;98290.38;5055018;28;20260;-59
2023/03/23 10:38:50;;;;;;;26.30;18.50;;;;;;;15.76;100.00;98361.19;5054781;28;20201;-60
2023/03/23 10:41:18;;;;;;;26.63;18.35;;;;;;;15.94;100.00;98355.13;5054746;28;20166;-60
2023/03/23 10:43:49;;;;;;;29.38;19.67;;;;;;;16.05;100.00;98362.81;5054728;28;20177;-60
2023/03/23 10:46:36;;;;;;;28.83;20.55;;;;;;;16.45;100.00;98352.16;5054812;28;20173;-60
2023/03/23 10:49:09;;;;;;;24.30;17.33;;;;;;;16.36;100.00;98298.13;5054684;28;20189;-61
2023/03/23 10:51:38;;;;;;;23.80;17.02;;;;;;;16.84;94.37;98349.22;5054812;28;20670;-61
2023/03/23 10:54:05;;;;;;;22.65;17.23;;;;;;;16.74;87.55;98304.00;5054289;28;20617;-61
2023/03/23 10:56:44;;;;;;;25.60;16.60;;;;;;;17.10;82.78;98357.19;5054728;28;20190;-61
2023/03/23 10:59:26;;;;;;;22.35;14.88;;;;;;;16.96;80.38;98313.25;5054566;28;20200;-61
2023/03/23 11:01:55;;;;;;;23.77;17.02;;;;;;;16.75;77.92;98316.13;5054592;28;20169;-61
2023/03/23 11:04:22;;;;;;;16.42;12.38;;;;;;;16.95;75.29;98329.88;5054470;28;20174;-61
2023/03/23 11:06:52;;;;;;;14.98;10.40;;;;;;;16.99;72.21;98333.88;5032008;28;20587;-61
2023/03/23 11:09:34;;;;;;;15.15;11.40;;;;;;;17.16;71.68;98356.59;5032112;28;20641;-61
2023/03/23 11:12:00;;;;;;;175.85;156.27;;;;;;;16.83;68.20;98284.84;5032097;28;20190;-61
2023/03/23 11:14:29;;;;;;;10.18;7.97;;;;;;;16.77;67.05;98284.59;5031960;28;20201;-61
2023/03/23 11:16:57;;;;;;;7.90;6.53;;;;;;;16.93;67.54;98296.09;5031922;28;20210;-61